Terminal Aerodrome Forecast
Issued by NWS

Home | Current Version | Previous Version | Text Only | Print | Product List | Glossary On
Versions: 1 2 3 4 5 6 7 8 9 10 11 12 13 14
000
FTUS41 KPBZ 242320
TAFZZV
TAF
KZZV 242320Z 2500/2524 18008KT P6SM BKN120
     FM250100 18003KT P6SM SKC
     FM251500 20010G16KT P6SM SCT040 BKN250=

USA.gov is the U.S. government's official web portal to all federal, state and local government web resources and services.